الصفحة الرئيسية
METAR-TAF:

METAR-TAF

مطار :

كن تاه, فيتنام

دائرة عرض: 10-05-07N, خط طول: 105-42-43E, ارتفاع: 3 متر

مراقبة الطقس الحالي

تاريخ ووقت الإصدار 1ساعة و 45 دقيقة قبل الساعة 20:00UTC
ريح 3 عقدةمن اتجاهات متغيرة
درجة الحرارة 24°درجة مئوية
الرطوبة 100%
ضغط 1007 hPa
الرؤية 10 كم أو أكثر
غيوم قليلة على ارتفاع 1500 قدم

METAR: VVCT 252000Z VRB03KT 9999 FEW015 24/24 Q1007 NOSIG

زمن: 04:45 (21:45 UTC)

توقعات

تاريخ ووقت الإصدار 4ساعات و 45 دقيقة قبل الساعة 17:00UTC
التوقعات صالحة من25 الساعة 18 UTC إلى 26 الساعة 18 UTC
ريح 8 عقدة من الجنوب الغربي
الرؤية 10 كم أو أكثر
غيوم متفرقة على ارتفاع 1500 قدم
مؤقت
من 26 الساعة 06 UTC إلى 26 الساعة 10 UTC
ريح 15 عقدة من الجنوب الغربي تتزايد حتى 28 عقدة
الرؤية: 5000 متر
غيوم مفككة على ارتفاع 1500 قدم
غيوم قليلة على ارتفاع 1700 قدم, مزنة ركامية.
زخات من المطر

TAF: VVCT 251700Z 2518/2618 23008KT 9999 SCT015 TEMPO 2606/2610 23015G28KT 5000 SHRA BKN015 FEW017CB

أرصاد الطقس والتوقعات من أكثر من 4000 مطار (تقارير الطقس للمطار METAR والتنبؤ بالطقس بالمطارTAF).

المحطات المتاحة هي النقط الصفراء والحمراء على الخريطة.

حرك المؤشر فوق النقطة لمعرفة اسم المحطة.

ثم انقر لمعرفة أرصاد وتوقعات الطقس.

لتغيير الخارطة: اضغط على الأزرار الخضراء مع رمز الصليب الأسود للتكبير. على الزر الأخضر مع شرطة للتصغير، أو على الأسهم الخضراء للخرائط المجاورة.


METAR-TAF: